Latest Weather Observations for Roxby Downs

IDS60801

Issued at 3:05 pm CST Friday 19 September 2014 (issued every 30 minutes, with the page automatically refreshed every 10 minutes)

About weather observations | Map of weather stations | Latest weather observations for SA | Other Formats
Station Details ID: 016096 Name: OLYMPIC DAM AERODROME Lat: -30.48 Lon: 136.88 Height: 98.5 m
Data from the previous 72 hours. | See also: Recent months at Roxby Downs
Date/Time
CST
Temp
°C
App
Temp
°C
Dew
Point
Rel
Hum
%
Delta-T
°C
Wind Press
QNH
hPa
Press
MSL
hPa
Rain
since 9 am
mm
Dir
 
Spd
km/h
Gust
km/h
Spd
kts
Gust
kts
19/03:00pm 24.9 21.7 -0.3 19 11.5 ESE 6 9 3 5 1020.1 1019.9 0.0
19/02:30pm 24.0 19.0 -1.0 19 11.2 NNW 15 20 8 11 1020.4 1020.2 0.0
19/02:00pm 23.5 19.4 -0.1 21 10.8 NE 11 17 6 9 1020.5 1020.3 0.0
19/01:30pm 24.0 20.7 0.4 21 10.9 E 7 15 4 8 1020.9 1020.7 0.0
19/01:00pm 23.4 19.0 0.5 22 10.6 N 13 20 7 11 1021.6 1021.4 0.0
19/12:30pm 23.1 19.5 0.9 23 10.2 NNW 9 20 5 11 1021.9 1021.7 0.0
19/12:00pm 22.7 17.7 1.1 24 10.0 NNE 17 24 9 13 1022.4 1022.3 0.0
19/11:30am 22.1 16.5 1.2 25 9.6 N 20 26 11 14 1022.9 1022.8 0.0
19/11:00am 21.7 16.8 1.9 27 9.2 NNE 17 22 9 12 1023.2 1023.1 0.0
19/10:30am 20.8 15.8 1.6 28 8.8 N 17 24 9 13 1023.5 1023.4 0.0
19/10:00am 20.7 15.4 1.6 28 8.8 NE 19 30 10 16 1023.6 1023.5 0.0
19/09:30am 19.8 14.5 1.7 30 8.3 NE 19 26 10 14 1023.8 1023.7 0.0
19/09:00am 19.3 14.4 2.2 32 7.8 NE 17 20 9 11 1023.9 1023.8 0.0
19/08:30am 17.9 13.5 2.6 36 7.0 E 15 19 8 10 1023.7 1023.6 0.0
19/08:00am 16.5 13.0 3.6 42 6.0 E 11 17 6 9 1023.5 1023.4 0.0
19/07:30am 12.8 10.7 3.7 54 4.1 SE 4 7 2 4 1023.1 1023.0 0.0
19/07:00am 9.0 7.6 3.4 68 2.4 CALM 0 6 0 3 1022.6 1022.5 0.0
19/06:30am 6.2 3.4 -0.1 64 2.4 SSE 4 7 2 4 1022.2 1022.1 0.0
19/06:00am 7.1 5.2 0.8 64 2.5 SSE 0 0 0 0 1021.9 1021.7 0.0
19/05:30am 8.5 5.2 2.3 65 2.6 SSE 9 11 5 6 1021.6 1021.4 0.0
19/05:00am 9.5 6.5 1.9 59 3.2 SE 7 9 4 5 1021.4 1021.2 0.0
19/04:30am 10.6 7.0 2.9 59 3.3 SE 11 13 6 7 1021.2 1021.0 0.0
19/04:00am 10.7 6.7 3.0 59 3.4 SSE 13 15 7 8 1021.0 1020.8 0.0
19/03:30am 10.5 7.2 2.4 57 3.5 SSE 9 11 5 6 1020.9 1020.7 0.0
19/03:00am 10.9 7.9 2.2 55 3.7 SSE 7 7 4 4 1020.8 1020.6 0.0
19/02:30am 12.0 9.1 2.5 52 4.1 SE 7 9 4 5 1020.8 1020.6 0.0
19/02:00am 13.0 9.4 3.1 51 4.4 SSE 11 15 6 8 1021.0 1020.8 0.0
19/01:30am 13.0 9.8 3.1 51 4.4 SSE 9 11 5 6 1021.3 1021.1 0.0
19/01:00am 13.6 10.1 3.7 51 4.5 SSE 11 13 6 7 1021.6 1021.4 0.0
19/12:30am 14.5 11.3 3.3 47 5.1 SSE 9 9 5 5 1021.9 1021.7 0.0
19/12:00am 16.1 13.0 3.5 43 5.8 SSE 9 11 5 6 1022.2 1022.1 0.0
 
Date/Time
CST
Temp
°C
App
Temp
°C
Dew
Point
Rel
Hum
%
Delta-T
°C
Wind Press
QNH
hPa
Press
MSL
hPa
Rain
since 9 am
mm
Dir
 
Spd
km/h
Gust
km/h
Spd
kts
Gust
kts
18/11:30pm 16.6 13.5 3.6 42 6.0 S 9 9 5 5 1022.7 1022.6 0.0
18/11:00pm 17.0 14.4 4.0 42 6.1 SSW 7 9 4 5 1023.0 1022.9 0.0
18/10:30pm 17.6 14.6 3.9 40 6.4 NW 9 11 5 6 1023.3 1023.2 0.0
18/10:00pm 17.7 14.3 3.9 40 6.5 NNW 11 15 6 8 1023.6 1023.5 0.0
18/09:30pm 17.8 14.0 4.0 40 6.5 NW 13 19 7 10 1023.8 1023.7 0.0
18/09:00pm 18.4 14.0 2.7 35 7.2 WNW 15 20 8 11 1024.0 1023.9 0.0
18/08:30pm 18.6 13.9 2.9 35 7.3 NW 17 24 9 13 1023.9 1023.8 0.0
18/08:00pm 19.0 14.1 2.0 32 7.8 WNW 17 24 9 13 1023.6 1023.5 0.0
18/07:30pm 18.8 12.3 2.6 34 7.5 W 26 35 14 19 1023.4 1023.3 0.0
18/07:29pm 18.7 11.9 3.3 36 7.2 W 28 35 15 19 1023.4 1023.3 0.0
18/07:00pm 20.3 16.6 0.2 26 9.0 WSW 9 15 5 8 1022.5 1022.4 0.0
18/06:30pm 20.9 17.1 -0.4 24 9.4 WSW 9 13 5 7 1022.3 1022.2 0.0
18/06:00pm 21.0 18.5 -0.9 23 9.6 SSW 2 7 1 4 1022.0 1021.8 0.0
18/05:30pm 21.3 17.5 -0.6 23 9.7 WSW 9 13 5 7 1021.7 1021.5 0.0
18/05:00pm 21.5 17.7 -1.1 22 9.9 SSW 9 15 5 8 1021.4 1021.2 0.0
18/04:30pm 21.8 17.9 -1.5 21 10.2 WSW 9 15 5 8 1021.2 1021.0 0.0
18/04:00pm 22.1 17.8 -1.9 20 10.4 SSE 11 17 6 9 1021.0 1020.8 0.0
18/03:30pm 22.1 18.1 -1.9 20 10.4 SSW 9 20 5 11 1020.8 1020.6 0.0
18/03:00pm 22.5 18.7 -0.9 21 10.4 WNW 9 13 5 7 1021.1 1020.9 0.0
18/02:30pm 21.8 17.5 -1.5 21 10.2 ENE 11 19 6 10 1021.2 1021.0 0.0
18/02:00pm 21.6 17.8 -1.0 22 10.0 W 9 15 5 8 1021.5 1021.3 0.0
18/01:30pm 21.4 17.8 -1.8 21 10.0 S 7 13 4 7 1021.8 1021.6 0.0
18/01:00pm 21.3 17.8 -1.3 22 9.9 W 7 17 4 9 1022.7 1022.6 0.0
18/12:30pm 21.1 17.4 -0.2 24 9.5 NNE 9 20 5 11 1023.2 1023.1 0.0
18/12:00pm 21.5 17.6 1.2 26 9.3 NNE 11 22 6 12 1023.6 1023.5 0.0
18/11:30am 20.8 16.5 1.1 27 9.0 NE 13 24 7 13 1024.2 1024.1 0.0
18/11:00am 20.2 15.2 1.6 29 8.5 NE 17 26 9 14 1024.4 1024.3 0.0
18/10:30am 20.4 15.2 2.3 30 8.4 E 19 32 10 17 1024.8 1024.7 0.0
18/10:00am 19.9 14.7 2.3 31 8.2 E 19 28 10 15 1024.9 1024.8 0.0
18/09:30am 19.0 14.2 2.4 33 7.6 E 17 24 9 13 1025.1 1025.0 0.0
18/09:00am 17.2 12.1 2.8 38 6.6 E 19 24 10 13 1025.2 1025.1 0.0
18/08:30am 16.1 10.8 3.2 42 5.9 E 20 26 11 14 1024.8 1024.7 0.0
18/08:00am 13.7 9.0 3.2 49 4.7 ESE 17 22 9 12 1024.8 1024.7 0.0
18/07:30am 11.3 6.6 3.1 57 3.6 SE 17 20 9 11 1024.4 1024.3 0.0
18/07:00am 7.8 3.9 1.2 63 2.7 SSE 11 13 6 7 1024.2 1024.1 0.0
18/06:30am 5.3 1.5 -0.7 65 2.2 S 9 11 5 6 1024.1 1024.0 0.0
18/06:00am 5.8 2.1 -0.3 65 2.3 S 9 11 5 6 1023.6 1023.5 0.0
18/05:30am 5.2 1.7 -1.3 63 2.4 S 7 9 4 5 1023.5 1023.4 0.0
18/05:00am 4.7 1.1 -1.9 62 2.4 S 7 11 4 6 1023.1 1023.0 0.0
18/04:30am 4.0 1.5 -4.0 56 2.7 CALM 0 0 0 0 1022.9 1022.8 0.0
18/04:00am 4.4 1.9 -4.1 54 2.9 CALM 0 0 0 0 1022.9 1022.8 0.0
18/03:30am 5.2 1.7 -2.8 56 2.8 S 6 7 3 4 1023.1 1023.0 0.0
18/03:00am 5.2 2.7 -4.4 50 3.3 CALM 0 9 0 5 1023.2 1023.1 0.0
18/02:30am 5.5 3.0 -4.3 49 3.4 CALM 0 0 0 0 1023.3 1023.2 0.0
18/02:00am 6.4 4.0 -3.5 49 3.5 CALM 0 0 0 0 1023.4 1023.3 0.0
18/01:30am 7.7 4.7 -1.8 51 3.6 S 4 6 2 3 1023.5 1023.4 0.0
18/01:00am 8.6 5.0 -2.1 47 4.0 SSE 7 7 4 4 1023.5 1023.4 0.0
18/12:30am 9.8 6.0 -0.4 49 4.1 S 9 15 5 8 1023.6 1023.5 0.0
18/12:00am 9.1 5.0 -0.5 51 3.8 SSE 11 13 6 7 1023.8 1023.7 0.0
 
Date/Time
CST
Temp
°C
App
Temp
°C
Dew
Point
Rel
Hum
%
Delta-T
°C
Wind Press
QNH
hPa
Press
MSL
hPa
Rain
since 9 am
mm
Dir
 
Spd
km/h
Gust
km/h
Spd
kts
Gust
kts
17/11:30pm 9.2 5.1 -0.1 52 3.7 SSE 11 13 6 7 1023.9 1023.8 0.0
17/11:00pm 9.4 7.0 -2.8 42 4.6 CALM 0 0 0 0 1024.0 1023.9 0.0
17/10:30pm 10.6 8.3 -2.4 40 5.0 CALM 0 0 0 0 1024.0 1023.9 0.0
17/10:00pm 12.8 10.8 -0.4 40 5.4 CALM 0 0 0 0 1023.8 1023.7 0.0
17/09:30pm 14.0 10.4 0.3 39 5.8 SW 9 11 5 6 1023.7 1023.6 0.0
17/09:00pm 14.9 11.3 0.4 37 6.2 SSW 9 11 5 6 1023.5 1023.4 0.0
17/08:30pm 15.8 11.4 0.4 35 6.6 SSW 13 15 7 8 1023.1 1023.0 0.0
17/08:00pm 16.4 12.3 0.1 33 7.0 SSW 11 15 6 8 1022.8 1022.7 0.0
17/07:30pm 16.8 12.7 0.0 32 7.2 SSW 11 13 6 7 1022.4 1022.3 0.0
17/07:00pm 17.8 13.7 -0.5 29 7.9 SSW 11 13 6 7 1022.1 1022.0 0.0
17/06:30pm 18.8 14.4 0.4 29 8.1 S 13 17 7 9 1021.8 1021.6 0.0
17/06:00pm 19.8 14.6 0.3 27 8.7 S 17 26 9 14 1021.6 1021.4 0.0
17/05:30pm 20.6 14.9 -0.7 24 9.3 S 19 26 10 14 1021.2 1021.0 0.0
17/05:00pm 21.1 16.2 -0.8 23 9.7 SSE 15 26 8 14 1020.9 1020.7 0.0
17/04:30pm 21.4 16.4 -1.2 22 9.9 S 15 24 8 13 1020.7 1020.5 0.0
17/04:00pm 21.2 15.4 -1.3 22 9.8 SSE 19 32 10 17 1020.6 1020.4 0.0
17/03:30pm 21.1 15.7 -1.4 22 9.8 S 17 26 9 14 1020.7 1020.5 0.0
17/03:00pm 21.3 17.1 -0.6 23 9.7 SSW 11 20 6 11 1020.8 1020.6 0.0
17/02:30pm 20.9 15.4 0.7 26 9.1 S 19 28 10 15 1020.9 1020.7 0.0
17/02:00pm 20.2 15.3 -0.4 25 9.1 SSE 15 30 8 16 1021.2 1021.0 0.0
17/01:30pm 19.4 14.9 -0.1 27 8.6 S 13 20 7 11 1021.6 1021.4 0.0
17/01:00pm 19.2 14.3 -0.2 27 8.5 S 15 26 8 14 1021.9 1021.7 0.0
17/12:30pm 19.1 13.6 0.7 29 8.2 SSE 19 24 10 13 1022.2 1022.1 0.0
17/12:00pm 18.6 14.2 2.9 35 7.3 SSW 15 22 8 12 1022.7 1022.6 0.0
17/11:30am 18.3 14.4 3.4 37 7.0 S 13 22 7 12 1023.1 1023.0 0.0
17/11:00am 16.8 12.5 3.5 41 6.2 SSE 15 22 8 12 1023.3 1023.2 0.0
17/10:30am 16.2 11.6 3.6 43 5.8 SSE 17 24 9 13 1023.5 1023.4 0.0
17/10:00am 16.4 12.1 5.1 47 5.4 S 17 28 9 15 1023.8 1023.7 0.0
17/09:30am 15.4 11.0 5.0 50 4.9 S 17 26 9 14 1023.9 1023.8 0.0
17/09:00am 14.9 10.6 5.4 53 4.5 S 17 22 9 12 1023.9 1023.8 0.0
17/08:30am 13.7 8.9 5.8 59 3.7 S 20 26 11 14 1023.6 1023.5 0.0
17/08:00am 12.5 8.9 6.8 68 2.7 S 15 20 8 11 1023.3 1023.2 0.0
17/07:30am 11.1 7.5 6.6 74 2.1 SSW 15 20 8 11 1022.9 1022.8 0.0
17/07:00am 9.6 6.7 6.3 80 1.5 SSW 11 13 6 7 1022.4 1022.3 0.0
17/06:30am 8.6 5.9 5.5 81 1.4 SW 9 11 5 6 1022.2 1022.1 0.0
17/06:00am 9.2 6.2 5.9 80 1.5 SSW 11 13 6 7 1021.5 1021.3 0.0
17/05:30am 9.9 6.5 6.1 77 1.8 SSW 13 17 7 9 1021.0 1020.8 0.0
17/05:00am 9.8 6.8 6.2 78 1.7 S 11 15 6 8 1020.4 1020.2 0.0
17/04:30am 8.2 5.5 3.7 73 1.9 SSW 7 9 4 5 1020.2 1020.0 0.0
17/04:00am 10.1 7.7 5.3 72 2.2 SSW 7 9 4 5 1020.0 1019.8 0.0
17/03:30am 11.3 8.6 5.8 69 2.6 S 9 11 5 6 1019.8 1019.6 0.0
17/03:00am 12.0 9.0 5.9 66 2.9 S 11 15 6 8 1019.7 1019.5 0.0
17/02:30am 12.7 9.2 5.6 62 3.3 SSW 13 19 7 10 1019.7 1019.5 0.0
17/02:00am 13.6 9.4 5.7 59 3.7 S 17 20 9 11 1019.9 1019.7 0.0
17/01:30am 13.8 9.9 5.2 56 4.0 S 15 17 8 9 1020.0 1019.8 0.0
17/01:00am 14.1 9.5 3.6 49 4.8 SSW 17 22 9 12 1020.3 1020.1 0.0
17/12:30am 14.2 9.4 2.5 45 5.2 SSW 17 22 9 12 1020.5 1020.3 0.0
17/12:00am 14.1 9.5 1.4 42 5.5 SW 15 19 8 10 1020.4 1020.2 0.0
 
Date/Time
CST
Temp
°C
App
Temp
°C
Dew
Point
Rel
Hum
%
Delta-T
°C
Wind Press
QNH
hPa
Press
MSL
hPa
Rain
since 9 am
mm
Dir
 
Spd
km/h
Gust
km/h
Spd
kts
Gust
kts
16/11:30pm 10.3 8.3 0.1 49 4.1 CALM 0 0 0 0 1020.3 1020.1 0.0
16/11:00pm 10.1 7.9 -1.9 43 4.6 CALM 0 0 0 0 1020.0 1019.8 0.0
16/10:30pm 10.2 8.0 -1.2 45 4.5 CALM 0 0 0 0 1020.0 1019.8 0.0
16/10:00pm 10.2 7.9 -2.4 41 4.8 CALM 0 0 0 0 1019.9 1019.7 0.0
16/09:30pm 11.2 9.0 -1.5 41 5.0 CALM 0 0 0 0 1020.0 1019.8 0.0
16/09:00pm 12.5 9.0 -2.5 35 5.9 S 6 6 3 3 1019.9 1019.7 0.0
16/08:30pm 14.5 11.1 -0.4 36 6.2 SSW 7 9 4 5 1019.8 1019.6 0.0
16/08:00pm 16.2 12.7 1.1 36 6.6 SSW 9 9 5 5 1019.4 1019.2 0.0
16/07:30pm 17.5 13.3 1.5 34 7.1 SSW 13 15 7 8 1019.1 1018.9 0.0
16/07:00pm 18.4 13.8 1.4 32 7.7 SSW 15 20 8 11 1018.6 1018.4 0.0
16/06:30pm 18.9 13.7 0.0 28 8.3 SSW 17 20 9 11 1018.2 1018.0 0.0
16/06:00pm 19.7 12.7 -0.3 26 8.8 SSW 26 33 14 18 1017.8 1017.6 0.0
16/05:30pm 20.9 15.1 -0.4 24 9.4 SW 20 28 11 15 1017.6 1017.4 0.0
16/05:00pm 21.4 16.1 -0.6 23 9.8 SW 17 24 9 13 1017.2 1017.0 0.0
16/04:30pm 21.6 15.9 -1.0 22 10.0 WSW 19 26 10 14 1016.9 1016.7 0.0
16/04:00pm 22.0 16.3 -0.7 22 10.1 SSW 19 30 10 16 1017.0 1016.8 0.0
16/03:30pm 21.7 16.4 -0.3 23 9.8 W 17 24 9 13 1016.9 1016.7 0.0

Other Formats:

Comma delimited format used in spreadsheet applications
http://www.bom.gov.au/fwo/IDS60801/IDS60801.95658.axf

JavaScript Object Notation format (JSON) in row-major order
http://www.bom.gov.au/fwo/IDS60801/IDS60801.95658.json